Time;durP1;ratioP1;P1;durP2;ratioP2;P2;SDS_P1;SDS_P2;PMS_P1;PMS_P2;Temp;Humidity;BMP_temperature;BMP_pressure;BME280_temperature;BME280_humidity;BME280_pressure;Samples;Min_cycle;Max_cycle;Signal;HPM_P1;HPM_P2
2023/03/29 00:01:13;;;;;;;7.32;3.55;;;;;;;;;;5017989;28;20280;-76
2023/03/29 00:03:41;;;;;;;4.83;3.07;;;;;;;;;;5018569;28;20166;-76
2023/03/29 00:06:07;;;;;;;3.70;2.80;;;;;;;;;;5018343;28;20459;-76
2023/03/29 00:08:33;;;;;;;5.30;3.00;;;;;;;;;;5017891;28;20189;-76
2023/03/29 00:11:01;;;;;;;3.83;2.97;;;;;;;;;;5018230;28;20183;-76
2023/03/29 00:13:27;;;;;;;6.65;4.00;;;;;;;;;;5017910;28;20178;-76
2023/03/29 00:15:53;;;;;;;5.70;3.57;;;;;;;;;;5018487;28;20175;-76
2023/03/29 00:18:20;;;;;;;6.45;3.38;;;;;;;;;;5018180;28;20465;-76
2023/03/29 00:20:45;;;;;;;7.63;3.30;;;;;;;;;;5018303;28;20594;-76
2023/03/29 00:23:11;;;;;;;4.57;3.23;;;;;;;;;;5018380;28;20179;-76
2023/03/29 00:25:37;;;;;;;7.43;2.83;;;;;;;;;;5018783;28;20476;-76
2023/03/29 00:28:03;;;;;;;6.80;3.13;;;;;;;;;;5018330;28;20492;-76
2023/03/29 00:30:30;;;;;;;3.95;3.00;;;;;;;;;;5018221;28;20444;-76
2023/03/29 00:32:56;;;;;;;7.38;3.17;;;;;;;;;;5018745;28;20233;-76
2023/03/29 00:35:21;;;;;;;4.30;3.00;;;;;;;;;;5017702;28;20641;-76
2023/03/29 00:37:49;;;;;;;3.72;3.10;;;;;;;;;;5017861;28;20425;-76
2023/03/29 00:40:15;;;;;;;7.63;3.42;;;;;;;;;;5017232;28;20646;-76
2023/03/29 00:42:44;;;;;;;5.93;2.92;;;;;;;;;;5019467;28;20356;-76
2023/03/29 00:45:19;;;;;;;4.60;2.78;;;;;;;;;;5021689;28;20218;-76
2023/03/29 00:47:50;;;;;;;5.10;3.20;;;;;;;;;;5021859;28;20193;-76
2023/03/29 00:50:21;;;;;;;5.75;3.13;;;;;;;;;;5021342;28;20229;-76
2023/03/29 00:52:52;;;;;;;3.70;2.80;;;;;;;;;;5022133;28;20179;-75
2023/03/29 00:55:21;;;;;;;4.57;3.15;;;;;;;;;;5022060;28;20644;-76
2023/03/29 00:57:48;;;;;;;5.03;3.00;;;;;;;;;;5022598;28;20182;-75
2023/03/29 01:00:19;;;;;;;3.13;2.83;;;;;;;;;;5021659;28;20186;-76
2023/03/29 01:02:49;;;;;;;4.72;2.72;;;;;;;;;;5021700;28;20603;-76
2023/03/29 01:05:18;;;;;;;3.38;2.80;;;;;;;;;;5021255;28;20567;-76
2023/03/29 01:07:48;;;;;;;3.25;2.70;;;;;;;;;;5021469;28;20186;-75
2023/03/29 01:10:16;;;;;;;7.00;3.20;;;;;;;;;;5021261;28;20520;-76
2023/03/29 01:12:45;;;;;;;4.20;2.95;;;;;;;;;;5021548;28;20226;-75
2023/03/29 01:15:14;;;;;;;5.72;3.63;;;;;;;;;;5021087;28;20232;-75
2023/03/29 01:17:49;;;;;;;4.03;2.40;;;;;;;;;;5020655;28;20611;-76
2023/03/29 01:20:20;;;;;;;5.25;3.45;;;;;;;;;;5021336;28;20178;-76
2023/03/29 01:23:06;;;;;;;2.67;2.47;;;;;;;;;;5021378;28;20176;-75
2023/03/29 01:25:51;;;;;;;4.13;3.05;;;;;;;;;;5020978;28;20299;-76
2023/03/29 01:28:22;;;;;;;4.10;2.92;;;;;;;;;;5020559;28;20186;-76
2023/03/29 01:30:51;;;;;;;5.15;3.10;;;;;;;;;;5021479;28;20269;-76
2023/03/29 01:33:22;;;;;;;6.78;4.47;;;;;;;;;;5020754;28;20188;-76
2023/03/29 01:36:02;;;;;;;3.65;3.15;;;;;;;;;;5021289;28;20516;-76
2023/03/29 01:38:41;;;;;;;5.30;3.15;;;;;;;;;;5020834;28;20174;-76
2023/03/29 01:41:07;;;;;;;3.47;3.17;;;;;;;;;;5020805;28;20185;-76
2023/03/29 01:43:55;;;;;;;3.47;3.15;;;;;;;;;;5020125;28;20175;-76
2023/03/29 01:46:42;;;;;;;5.20;3.20;;;;;;;;;;5020259;28;20206;-76
2023/03/29 01:49:13;;;;;;;5.30;3.28;;;;;;;;;;5019934;28;20205;-76
2023/03/29 01:51:41;;;;;;;5.72;2.95;;;;;;;;;;5020542;28;20198;-76
2023/03/29 01:54:15;;;;;;;3.03;2.50;;;;;;;;;;5020324;28;20175;-76
2023/03/29 01:56:43;;;;;;;4.80;3.10;;;;;;;;;;5020308;28;20253;-76
2023/03/29 01:59:14;;;;;;;3.33;2.80;;;;;;;;;;5020203;28;20542;-76
2023/03/29 02:01:42;;;;;;;3.97;2.30;;;;;;;;;;5020413;28;20296;-76
2023/03/29 02:04:12;;;;;;;2.78;2.38;;;;;;;;;;5020604;28;20179;-76
2023/03/29 02:06:38;;;;;;;3.75;2.83;;;;;;;;;;5020380;28;20238;-76
2023/03/29 02:09:05;;;;;;;4.50;2.72;;;;;;;;;;5020175;28;20253;-76
2023/03/29 02:11:33;;;;;;;3.97;2.50;;;;;;;;;;5020035;28;20187;-76
2023/03/29 02:13:59;;;;;;;7.63;3.00;;;;;;;;;;5020503;28;20194;-76
2023/03/29 02:16:25;;;;;;;3.63;2.80;;;;;;;;;;5020546;28;20183;-76
2023/03/29 02:18:53;;;;;;;3.57;3.10;;;;;;;;;;5019312;28;20231;-76
2023/03/29 02:21:23;;;;;;;5.10;3.00;;;;;;;;;;5020161;28;20398;-76
2023/03/29 02:23:53;;;;;;;6.70;3.40;;;;;;;;;;5019564;28;20254;-75
2023/03/29 02:26:20;;;;;;;5.13;3.35;;;;;;;;;;5019544;28;20199;-76
2023/03/29 02:28:46;;;;;;;3.00;2.70;;;;;;;;;;5019487;28;20191;-76
2023/03/29 02:31:16;;;;;;;5.00;2.40;;;;;;;;;;5019149;28;20220;-76
2023/03/29 02:33:46;;;;;;;3.42;2.53;;;;;;;;;;5018758;28;20812;-76
2023/03/29 02:36:14;;;;;;;7.35;3.25;;;;;;;;;;5018652;28;20179;-76
2023/03/29 02:38:40;;;;;;;3.35;3.00;;;;;;;;;;5029864;28;20174;-76
2023/03/29 02:41:07;;;;;;;3.40;2.63;;;;;;;;;;5039312;28;20184;-76
2023/03/29 02:43:34;;;;;;;3.67;2.97;;;;;;;;;;5038759;28;20174;-76
2023/03/29 02:46:01;;;;;;;5.22;2.60;;;;;;;;;;5039148;28;20198;-75
2023/03/29 02:48:27;;;;;;;6.60;2.65;;;;;;;;;;5038540;28;20186;-76
2023/03/29 02:50:55;;;;;;;3.97;2.90;;;;;;;;;;5038690;28;20182;-76
2023/03/29 02:53:23;;;;;;;3.20;2.90;;;;;;;;;;5038601;28;20228;-76
2023/03/29 02:55:50;;;;;;;4.50;2.55;;;;;;;;;;5038905;28;20182;-75
2023/03/29 02:58:16;;;;;;;4.07;2.15;;;;;;;;;;5039316;28;20192;-75
2023/03/29 03:00:47;;;;;;;6.33;2.77;;;;;;;;;;5038935;28;20555;-76
2023/03/29 03:03:14;;;;;;;4.05;2.38;;;;;;;;;;5039426;28;20421;-75
2023/03/29 03:05:40;;;;;;;4.35;2.60;;;;;;;;;;5037107;28;20332;-76
2023/03/29 03:08:07;;;;;;;5.05;3.35;;;;;;;;;;5038108;28;20213;-76
2023/03/29 03:10:33;;;;;;;5.75;2.65;;;;;;;;;;5038558;28;20537;-76
2023/03/29 03:13:00;;;;;;;3.38;2.53;;;;;;;;;;5039103;28;20172;-76
2023/03/29 03:15:26;;;;;;;6.22;2.67;;;;;;;;;;5039333;28;20238;-76
2023/03/29 03:17:52;;;;;;;4.57;2.90;;;;;;;;;;5039255;28;20203;-75
2023/03/29 03:20:20;;;;;;;3.35;2.40;;;;;;;;;;5038998;28;20539;-75
2023/03/29 03:22:48;;;;;;;3.35;3.05;;;;;;;;;;5037800;28;20177;-76
2023/03/29 03:25:19;;;;;;;3.55;2.35;;;;;;;;;;5038069;28;20269;-75
2023/03/29 03:27:45;;;;;;;4.38;2.72;;;;;;;;;;5038491;28;20209;-76
2023/03/29 03:30:12;;;;;;;5.30;2.28;;;;;;;;;;5038673;28;20617;-76
2023/03/29 03:32:38;;;;;;;4.10;2.85;;;;;;;;;;5038410;28;20196;-76
2023/03/29 03:35:04;;;;;;;3.45;2.30;;;;;;;;;;5037583;28;20193;-76
2023/03/29 03:37:30;;;;;;;3.03;2.50;;;;;;;;;;5037826;28;20562;-76
2023/03/29 03:39:56;;;;;;;2.35;2.10;;;;;;;;;;5038201;28;20193;-76
2023/03/29 03:42:23;;;;;;;3.45;2.72;;;;;;;;;;5038173;28;20174;-76
2023/03/29 03:44:49;;;;;;;4.60;2.30;;;;;;;;;;5037908;28;20256;-76
2023/03/29 03:47:15;;;;;;;3.78;2.33;;;;;;;;;;5037562;28;20259;-76
2023/03/29 03:49:41;;;;;;;4.22;1.80;;;;;;;;;;5037148;28;20190;-76
2023/03/29 03:52:07;;;;;;;2.78;2.30;;;;;;;;;;5037315;28;20626;-76
2023/03/29 03:54:33;;;;;;;4.05;2.42;;;;;;;;;;5037447;28;20644;-76
2023/03/29 03:56:59;;;;;;;2.40;2.20;;;;;;;;;;5037539;28;20536;-76
2023/03/29 03:59:25;;;;;;;4.70;2.80;;;;;;;;;;5036873;28;20261;-76
2023/03/29 04:01:51;;;;;;;6.20;2.70;;;;;;;;;;5036911;28;20460;-76
2023/03/29 04:04:18;;;;;;;4.30;2.85;;;;;;;;;;5036709;28;20430;-76
2023/03/29 04:06:44;;;;;;;2.75;2.13;;;;;;;;;;5037211;28;20217;-76
2023/03/29 04:09:11;;;;;;;2.83;2.53;;;;;;;;;;5037732;28;20193;-76
2023/03/29 04:11:37;;;;;;;2.63;2.25;;;;;;;;;;5037114;28;20170;-76
2023/03/29 04:14:03;;;;;;;3.97;2.63;;;;;;;;;;5036887;28;20185;-76
2023/03/29 04:16:30;;;;;;;3.30;2.50;;;;;;;;;;5037493;28;20566;-76
2023/03/29 04:18:56;;;;;;;3.63;2.53;;;;;;;;;;5037941;28;20418;-76
2023/03/29 04:21:22;;;;;;;3.95;3.00;;;;;;;;;;5037608;28;20174;-76
2023/03/29 04:23:48;;;;;;;2.80;2.50;;;;;;;;;;5036851;28;20257;-76
2023/03/29 04:26:16;;;;;;;2.90;2.30;;;;;;;;;;5037415;28;20225;-76
2023/03/29 04:28:42;;;;;;;5.65;2.95;;;;;;;;;;5037000;28;20188;-76
2023/03/29 04:31:12;;;;;;;3.13;2.70;;;;;;;;;;5037260;28;20265;-76
2023/03/29 04:33:38;;;;;;;3.17;2.42;;;;;;;;;;5037678;28;20423;-75
2023/03/29 04:36:05;;;;;;;3.85;2.72;;;;;;;;;;5037767;28;20185;-76
2023/03/29 04:38:34;;;;;;;7.35;2.70;;;;;;;;;;5037256;28;20175;-75
2023/03/29 04:41:00;;;;;;;4.32;2.47;;;;;;;;;;5037762;28;20188;-75
2023/03/29 04:43:28;;;;;;;4.60;2.75;;;;;;;;;;5037747;28;20178;-76
2023/03/29 04:45:55;;;;;;;2.95;2.40;;;;;;;;;;5037125;28;20202;-75
2023/03/29 04:48:21;;;;;;;5.70;2.90;;;;;;;;;;5037169;28;20657;-76
2023/03/29 04:50:47;;;;;;;3.90;2.30;;;;;;;;;;5037059;28;20258;-76
2023/03/29 04:53:13;;;;;;;4.75;2.40;;;;;;;;;;5037472;28;20179;-76
2023/03/29 04:55:39;;;;;;;5.20;2.50;;;;;;;;;;5036649;28;20281;-76
2023/03/29 04:58:05;;;;;;;4.55;2.70;;;;;;;;;;5036921;28;20466;-76
2023/03/29 05:00:31;;;;;;;4.25;2.72;;;;;;;;;;5036906;28;20182;-76
2023/03/29 05:02:57;;;;;;;2.77;2.27;;;;;;;;;;5036770;28;20701;-76
2023/03/29 05:05:23;;;;;;;3.20;2.90;;;;;;;;;;5037145;28;20410;-76
2023/03/29 05:07:50;;;;;;;4.40;2.80;;;;;;;;;;5037116;28;20496;-76
2023/03/29 05:10:16;;;;;;;4.85;2.72;;;;;;;;;;5037810;28;20650;-76
2023/03/29 05:12:42;;;;;;;2.40;2.20;;;;;;;;;;5036994;28;20284;-76
2023/03/29 05:15:08;;;;;;;4.22;2.65;;;;;;;;;;5037236;28;20202;-76
2023/03/29 05:17:34;;;;;;;3.97;2.25;;;;;;;;;;5022683;28;20195;-77
2023/03/29 05:20:00;;;;;;;7.05;2.40;;;;;;;;;;5016461;28;20185;-76
2023/03/29 05:22:27;;;;;;;3.83;2.90;;;;;;;;;;5035354;28;20205;-76
2023/03/29 05:24:53;;;;;;;3.88;2.80;;;;;;;;;;5036169;28;20412;-76
2023/03/29 05:27:21;;;;;;;3.13;2.50;;;;;;;;;;5035995;28;20551;-76
2023/03/29 05:29:48;;;;;;;2.85;2.55;;;;;;;;;;5036905;28;20416;-76
2023/03/29 05:32:14;;;;;;;4.53;2.40;;;;;;;;;;5039597;28;20200;-76
2023/03/29 05:34:40;;;;;;;3.38;2.20;;;;;;;;;;5038938;28;20235;-76
2023/03/29 05:37:06;;;;;;;3.17;2.28;;;;;;;;;;5039496;28;20231;-76
2023/03/29 05:39:32;;;;;;;8.35;3.03;;;;;;;;;;5038665;28;20277;-76
2023/03/29 05:41:59;;;;;;;7.80;2.85;;;;;;;;;;5039675;28;20568;-76
2023/03/29 05:44:25;;;;;;;3.88;2.50;;;;;;;;;;5039504;28;20232;-76
2023/03/29 05:46:51;;;;;;;4.43;2.55;;;;;;;;;;5039482;28;20233;-76
2023/03/29 05:49:17;;;;;;;3.77;2.67;;;;;;;;;;5039378;28;20540;-76
2023/03/29 05:51:44;;;;;;;4.43;2.55;;;;;;;;;;5039345;28;20410;-76
2023/03/29 05:54:10;;;;;;;2.80;2.30;;;;;;;;;;5039658;28;20185;-76
2023/03/29 05:56:37;;;;;;;3.25;2.72;;;;;;;;;;5039054;28;20201;-76
2023/03/29 05:59:03;;;;;;;4.80;2.78;;;;;;;;;;5039759;28;20454;-76
2023/03/29 06:01:29;;;;;;;3.63;2.15;;;;;;;;;;5038694;28;20226;-76
2023/03/29 06:03:56;;;;;;;7.00;2.63;;;;;;;;;;5039090;28;20178;-76
2023/03/29 06:06:22;;;;;;;2.20;2.00;;;;;;;;;;5039675;28;20225;-76
2023/03/29 06:08:48;;;;;;;3.43;2.10;;;;;;;;;;5038875;28;20174;-76
2023/03/29 06:11:14;;;;;;;3.88;2.65;;;;;;;;;;5038682;28;20409;-76
2023/03/29 06:13:41;;;;;;;5.18;2.50;;;;;;;;;;5039685;28;20182;-76
2023/03/29 06:16:07;;;;;;;3.53;2.60;;;;;;;;;;5038817;28;20182;-76
2023/03/29 06:18:33;;;;;;;5.40;2.72;;;;;;;;;;5038980;28;20178;-76
2023/03/29 06:21:01;;;;;;;2.95;2.60;;;;;;;;;;5039375;28;20174;-76
2023/03/29 06:23:28;;;;;;;4.97;3.00;;;;;;;;;;5038739;28;20204;-76
2023/03/29 06:25:54;;;;;;;6.72;3.00;;;;;;;;;;5038490;28;20299;-76
2023/03/29 06:28:20;;;;;;;4.03;2.72;;;;;;;;;;5038801;28;20188;-76
2023/03/29 06:30:48;;;;;;;6.70;2.88;;;;;;;;;;5038259;28;20182;-76
2023/03/29 06:33:15;;;;;;;3.55;2.63;;;;;;;;;;5038337;28;20185;-76
2023/03/29 06:35:42;;;;;;;4.75;2.70;;;;;;;;;;5038348;28;20182;-76
2023/03/29 06:38:08;;;;;;;5.80;2.50;;;;;;;;;;5038336;28;20189;-76
2023/03/29 06:40:36;;;;;;;3.60;2.88;;;;;;;;;;5038218;28;20525;-76
2023/03/29 06:43:02;;;;;;;4.65;2.58;;;;;;;;;;5038342;28;20186;-76
2023/03/29 06:45:29;;;;;;;7.33;2.73;;;;;;;;;;5038280;28;20753;-76
2023/03/29 06:47:55;;;;;;;4.18;3.13;;;;;;;;;;5037454;28;20527;-76
2023/03/29 06:50:22;;;;;;;6.23;3.00;;;;;;;;;;5038099;28;20257;-76
2023/03/29 06:52:48;;;;;;;6.38;3.10;;;;;;;;;;5037803;28;20413;-76
2023/03/29 06:55:15;;;;;;;3.38;2.92;;;;;;;;;;5037806;28;20185;-76
2023/03/29 06:57:41;;;;;;;4.20;2.80;;;;;;;;;;5037717;28;20213;-77
2023/03/29 07:00:16;;;;;;;3.67;2.67;;;;;;;;;;5037726;28;20184;-76
2023/03/29 07:02:42;;;;;;;4.30;3.88;;;;;;;;;;5037220;28;20583;-77
2023/03/29 07:05:10;;;;;;;4.03;3.42;;;;;;;;;;5019737;28;20178;-77
2023/03/29 07:07:58;;;;;;;4.10;3.67;;;;;;;;;;5037121;28;20209;-77
2023/03/29 07:10:31;;;;;;;3.65;3.35;;;;;;;;;;5037433;28;20178;-76
2023/03/29 07:12:59;;;;;;;5.30;4.07;;;;;;;;;;5037869;28;20289;-77
2023/03/29 07:15:26;;;;;;;5.90;3.25;;;;;;;;;;5037372;28;20231;-76
2023/03/29 07:17:52;;;;;;;6.65;4.88;;;;;;;;;;5037073;28;20186;-76
2023/03/29 07:20:20;;;;;;;8.43;5.90;;;;;;;;;;5037729;28;20310;-77
2023/03/29 07:22:47;;;;;;;11.80;6.65;;;;;;;;;;5037149;28;20622;-76
2023/03/29 07:25:15;;;;;;;8.25;4.68;;;;;;;;;;5030983;28;20228;-77
2023/03/29 07:27:41;;;;;;;7.72;3.10;;;;;;;;;;5034308;28;20575;-77
2023/03/29 07:30:09;;;;;;;4.35;2.67;;;;;;;;;;5037424;28;20303;-77
2023/03/29 07:32:40;;;;;;;10.07;5.30;;;;;;;;;;5036980;28;20182;-76
2023/03/29 07:35:07;;;;;;;7.05;4.38;;;;;;;;;;5037010;28;20224;-77
2023/03/29 07:37:35;;;;;;;9.30;4.72;;;;;;;;;;5037329;28;20280;-76
2023/03/29 07:40:03;;;;;;;6.60;3.63;;;;;;;;;;5022461;28;20190;-76
2023/03/29 07:42:29;;;;;;;13.20;5.15;;;;;;;;;;5016965;28;20182;-77
2023/03/29 07:44:55;;;;;;;10.85;6.30;;;;;;;;;;5017365;28;20777;-76
2023/03/29 07:47:22;;;;;;;8.00;4.93;;;;;;;;;;5017558;28;20250;-77
2023/03/29 07:49:47;;;;;;;8.13;3.60;;;;;;;;;;5016533;28;20406;-77
2023/03/29 07:52:13;;;;;;;5.43;3.10;;;;;;;;;;5016917;28;20179;-77
2023/03/29 07:54:39;;;;;;;7.00;3.50;;;;;;;;;;5016971;28;20434;-77
2023/03/29 07:57:05;;;;;;;4.20;3.17;;;;;;;;;;5017550;28;20448;-77
2023/03/29 07:59:31;;;;;;;4.10;2.93;;;;;;;;;;5017325;28;20437;-77
2023/03/29 08:01:58;;;;;;;5.77;3.23;;;;;;;;;;5017015;28;20457;-77
2023/03/29 08:04:24;;;;;;;4.10;3.20;;;;;;;;;;5016865;28;20413;-77
2023/03/29 08:06:50;;;;;;;6.73;3.40;;;;;;;;;;5016482;28;20520;-77
2023/03/29 08:09:16;;;;;;;5.70;3.00;;;;;;;;;;5016424;28;20406;-77
2023/03/29 08:11:42;;;;;;;4.60;3.60;;;;;;;;;;5016403;28;20202;-77
2023/03/29 08:14:08;;;;;;;4.37;2.93;;;;;;;;;;5017052;28;20183;-77
2023/03/29 08:16:34;;;;;;;3.10;2.73;;;;;;;;;;5025196;28;20440;-76
2023/03/29 08:19:00;;;;;;;3.73;2.73;;;;;;;;;;5024569;28;20441;-77
2023/03/29 08:21:26;;;;;;;2.83;2.42;;;;;;;;;;5026618;28;20408;-77
2023/03/29 08:23:52;;;;;;;5.70;2.70;;;;;;;;;;5025086;28;20183;-77
2023/03/29 08:26:18;;;;;;;7.73;3.00;;;;;;;;;;5033063;28;20479;-77
2023/03/29 08:28:44;;;;;;;5.03;3.03;;;;;;;;;;5035689;28;20909;-77
2023/03/29 08:31:10;;;;;;;6.70;3.73;;;;;;;;;;5035980;28;20475;-77
2023/03/29 08:33:36;;;;;;;5.53;3.35;;;;;;;;;;5035921;28;20429;-77
2023/03/29 08:36:03;;;;;;;8.30;3.37;;;;;;;;;;5035753;28;20186;-77
2023/03/29 08:38:29;;;;;;;5.72;3.55;;;;;;;;;;5035747;28;20401;-77
2023/03/29 08:40:55;;;;;;;4.13;2.60;;;;;;;;;;5036284;28;20189;-77
2023/03/29 08:43:21;;;;;;;3.80;3.10;;;;;;;;;;5035886;28;20413;-77
2023/03/29 08:45:58;;;;;;;5.13;2.80;;;;;;;;;;5036004;28;20983;-77
2023/03/29 08:48:24;;;;;;;5.07;2.80;;;;;;;;;;5035732;28;20911;-77
2023/03/29 08:50:52;;;;;;;3.85;2.40;;;;;;;;;;5035821;28;20413;-78
2023/03/29 08:53:27;;;;;;;6.70;2.80;;;;;;;;;;5035902;28;20624;-77
2023/03/29 08:55:55;;;;;;;5.27;2.73;;;;;;;;;;5035827;28;20408;-77
2023/03/29 08:58:24;;;;;;;5.23;3.10;;;;;;;;;;5035785;28;20471;-77
2023/03/29 09:00:54;;;;;;;3.97;2.10;;;;;;;;;;5035166;28;20480;-77
2023/03/29 09:03:29;;;;;;;5.83;3.40;;;;;;;;;;5036205;28;20418;-77
2023/03/29 09:06:05;;;;;;;6.60;2.40;;;;;;;;;;5038808;28;20563;-77
2023/03/29 09:08:32;;;;;;;4.60;3.50;;;;;;;;;;5039777;28;20405;-77
2023/03/29 09:11:01;;;;;;;6.20;2.83;;;;;;;;;;5039391;28;20532;-77
2023/03/29 09:13:36;;;;;;;8.60;2.70;;;;;;;;;;5039253;28;20759;-76
2023/03/29 09:16:06;;;;;;;3.83;2.27;;;;;;;;;;5039196;28;20418;-77
2023/03/29 09:18:41;;;;;;;2.90;2.53;;;;;;;;;;5033585;28;20414;-77
2023/03/29 09:21:20;;;;;;;3.57;2.37;;;;;;;;;;5027190;28;20419;-77
2023/03/29 09:23:51;;;;;;;3.97;2.13;;;;;;;;;;5030345;28;20408;-77
2023/03/29 09:26:25;;;;;;;5.20;3.23;;;;;;;;;;5028507;28;20469;-77
2023/03/29 09:29:12;;;;;;;3.57;2.13;;;;;;;;;;5027093;28;20408;-77
2023/03/29 09:31:44;;;;;;;5.77;2.80;;;;;;;;;;4989300;28;20975;-77
2023/03/29 09:34:10;;;;;;;3.40;2.40;;;;;;;;;;5018706;28;20413;-77
2023/03/29 09:36:50;;;;;;;3.47;2.03;;;;;;;;;;5019032;28;20989;-77
2023/03/29 09:39:17;;;;;;;5.57;2.60;;;;;;;;;;5029785;28;20464;-77
2023/03/29 09:41:43;;;;;;;5.40;2.37;;;;;;;;;;5027297;28;20484;-77
2023/03/29 09:44:30;;;;;;;4.50;2.33;;;;;;;;;;5032859;28;20450;-77
2023/03/29 09:47:06;;;;;;;5.80;2.70;;;;;;;;;;5038264;28;20456;-77
2023/03/29 09:49:35;;;;;;;3.10;1.93;;;;;;;;;;5038985;28;20436;-77
2023/03/29 09:52:04;;;;;;;2.60;2.30;;;;;;;;;;5038534;28;20901;-77
2023/03/29 09:54:31;;;;;;;3.27;2.20;;;;;;;;;;5039117;28;20424;-77
2023/03/29 09:56:57;;;;;;;4.47;2.50;;;;;;;;;;5038810;28;20981;-77
2023/03/29 09:59:23;;;;;;;5.63;2.20;;;;;;;;;;5038400;28;20467;-77
2023/03/29 10:01:50;;;;;;;7.27;2.47;;;;;;;;;;5038061;28;20820;-77
2023/03/29 10:04:16;;;;;;;3.20;2.23;;;;;;;;;;5038462;28;20927;-77
2023/03/29 10:06:46;;;;;;;5.53;2.40;;;;;;;;;;5038049;28;20501;-77
2023/03/29 10:09:20;;;;;;;6.53;2.40;;;;;;;;;;5038375;28;20405;-77
2023/03/29 10:11:47;;;;;;;2.90;2.00;;;;;;;;;;5037982;28;20458;-77
2023/03/29 10:14:16;;;;;;;6.60;2.30;;;;;;;;;;5018259;28;20914;-77
2023/03/29 10:16:46;;;;;;;6.73;2.97;;;;;;;;;;5018085;28;20850;-77
2023/03/29 10:19:15;;;;;;;9.57;3.07;;;;;;;;;;5017526;28;20978;-77
2023/03/29 10:21:41;;;;;;;5.30;3.07;;;;;;;;;;5017852;28;20930;-77
2023/03/29 10:24:09;;;;;;;7.30;2.53;;;;;;;;;;5017856;28;20897;-77
2023/03/29 10:26:37;;;;;;;9.00;2.70;;;;;;;;;;5018865;28;20539;-77
2023/03/29 10:29:06;;;;;;;5.37;2.40;;;;;;;;;;5017644;28;20413;-77
2023/03/29 10:31:32;;;;;;;5.67;2.60;;;;;;;;;;5017314;28;20400;-77
2023/03/29 10:34:01;;;;;;;6.20;2.20;;;;;;;;;;5017745;28;20493;-77
2023/03/29 10:36:27;;;;;;;7.27;2.17;;;;;;;;;;5017829;28;20410;-77
2023/03/29 10:38:55;;;;;;;6.60;2.10;;;;;;;;;;5017249;28;20456;-78
2023/03/29 10:41:22;;;;;;;4.67;2.00;;;;;;;;;;5017373;28;20402;-77
2023/03/29 10:43:50;;;;;;;5.07;2.70;;;;;;;;;;5018174;28;20893;-77
2023/03/29 10:46:20;;;;;;;4.87;2.53;;;;;;;;;;5017493;28;20913;-77
2023/03/29 10:48:48;;;;;;;3.77;2.20;;;;;;;;;;5017902;28;20406;-77
2023/03/29 10:51:15;;;;;;;3.60;1.90;;;;;;;;;;5017566;28;20413;-77
2023/03/29 10:53:41;;;;;;;3.90;2.60;;;;;;;;;;5018152;28;20508;-77
2023/03/29 10:56:07;;;;;;;6.20;2.20;;;;;;;;;;5017055;28;20406;-77
2023/03/29 10:58:33;;;;;;;3.43;1.87;;;;;;;;;;5024322;28;20494;-77
2023/03/29 11:00:59;;;;;;;4.13;2.03;;;;;;;;;;5024877;28;20822;-77
2023/03/29 11:03:25;;;;;;;3.70;2.23;;;;;;;;;;5028389;28;20438;-77
2023/03/29 11:05:51;;;;;;;5.80;2.10;;;;;;;;;;5036533;28;20500;-78
2023/03/29 11:08:17;;;;;;;4.67;1.97;;;;;;;;;;5036936;28;20834;-77
2023/03/29 11:11:02;;;;;;;3.07;1.80;;;;;;;;;;5037014;28;20401;-77
2023/03/29 11:13:28;;;;;;;3.30;1.80;;;;;;;;;;5018950;28;20920;-77
2023/03/29 11:16:01;;;;;;;4.00;1.90;;;;;;;;;;5036425;28;20416;-78
2023/03/29 11:18:33;;;;;;;3.60;2.07;;;;;;;;;;5036921;28;20409;-78
2023/03/29 11:21:00;;;;;;;2.57;1.70;;;;;;;;;;5036558;28;20520;-78
2023/03/29 11:23:32;;;;;;;2.83;1.67;;;;;;;;;;5036102;28;20409;-78
2023/03/29 11:25:58;;;;;;;3.23;1.60;;;;;;;;;;5035823;28;20460;-78
2023/03/29 11:28:44;;;;;;;2.37;2.17;;;;;;;;;;5035526;28;20433;-78
2023/03/29 11:31:28;;;;;;;4.77;1.90;;;;;;;;;;5022538;28;20486;-78
2023/03/29 11:34:04;;;;;;;1.97;1.60;;;;;;;;;;5036387;28;20495;-78
2023/03/29 11:36:36;;;;;;;3.40;1.70;;;;;;;;;;5030656;28;20402;-77
2023/03/29 11:39:03;;;;;;;4.10;1.70;;;;;;;;;;5036027;28;20419;-78
2023/03/29 11:41:34;;;;;;;2.23;1.40;;;;;;;;;;5036434;28;20906;-78
2023/03/29 11:44:02;;;;;;;4.30;1.60;;;;;;;;;;5035567;28;20919;-77
2023/03/29 11:46:34;;;;;;;2.43;1.30;;;;;;;;;;5036739;28;20550;-77
2023/03/29 11:49:18;;;;;;;2.00;1.30;;;;;;;;;;5033087;28;20412;-78
2023/03/29 11:52:03;;;;;;;2.37;1.23;;;;;;;;;;5021835;28;20425;-77
2023/03/29 11:54:29;;;;;;;2.90;1.60;;;;;;;;;;5016458;28;20496;-77
2023/03/29 11:57:00;;;;;;;2.90;1.47;;;;;;;;;;5016067;28;20432;-78
2023/03/29 11:59:35;;;;;;;1.90;1.30;;;;;;;;;;5016479;28;20909;-77
2023/03/29 12:02:04;;;;;;;3.00;1.40;;;;;;;;;;5015376;28;20534;-78
2023/03/29 12:04:32;;;;;;;3.73;1.43;;;;;;;;;;5015915;28;20410;-77
2023/03/29 12:07:03;;;;;;;2.87;1.37;;;;;;;;;;5015202;28;20451;-79
2023/03/29 12:09:50;;;;;;;3.10;1.97;;;;;;;;;;5015571;28;20421;-78
2023/03/29 12:12:20;;;;;;;2.00;1.70;;;;;;;;;;5014830;28;20390;-78
2023/03/29 12:14:53;;;;;;;2.60;1.77;;;;;;;;;;5015782;28;20421;-77
2023/03/29 12:17:22;;;;;;;4.23;1.77;;;;;;;;;;5015245;28;20373;-78
2023/03/29 12:20:01;;;;;;;2.47;1.87;;;;;;;;;;5015329;28;20402;-78
2023/03/29 12:22:27;;;;;;;2.83;1.60;;;;;;;;;;5015837;28;20380;-78
2023/03/29 12:24:54;;;;;;;2.97;1.60;;;;;;;;;;5015304;28;20909;-77
2023/03/29 12:27:24;;;;;;;5.77;1.60;;;;;;;;;;5015397;28;20437;-78
2023/03/29 12:30:12;;;;;;;4.63;1.63;;;;;;;;;;5015072;28;20801;-78
2023/03/29 12:32:47;;;;;;;3.27;1.77;;;;;;;;;;4997539;28;20995;-78
2023/03/29 12:35:40;;;;;;;1.70;1.30;;;;;;;;;;5014854;28;20760;-78
2023/03/29 12:38:26;;;;;;;2.67;1.83;;;;;;;;;;5011963;28;20418;-78
2023/03/29 12:40:56;;;;;;;2.70;1.50;;;;;;;;;;5019037;28;20868;-78
2023/03/29 12:43:25;;;;;;;2.60;1.53;;;;;;;;;;5019156;28;20419;-77
2023/03/29 12:46:20;;;;;;;2.97;1.50;;;;;;;;;;5018787;28;20484;-78
2023/03/29 12:48:48;;;;;;;2.87;1.63;;;;;;;;;;5002077;28;20418;-78
2023/03/29 12:51:16;;;;;;;3.07;1.70;;;;;;;;;;5018398;28;20754;-78
2023/03/29 12:53:42;;;;;;;2.27;1.30;;;;;;;;;;5018651;28;20889;-78
2023/03/29 12:56:15;;;;;;;2.70;1.53;;;;;;;;;;5019107;28;20552;-78
2023/03/29 12:58:43;;;;;;;4.00;1.93;;;;;;;;;;5018878;28;20420;-78
2023/03/29 13:01:22;;;;;;;3.33;1.63;;;;;;;;;;5018770;28;20476;-78
2023/03/29 13:03:50;;;;;;;2.30;1.80;;;;;;;;;;5001083;28;20888;-77
2023/03/29 13:06:28;;;;;;;3.07;2.00;;;;;;;;;;5018712;28;20472;-78
2023/03/29 13:09:17;;;;;;;1.83;1.40;;;;;;;;;;5017995;28;20782;-82
2023/03/29 13:11:44;;;;;;;2.37;1.00;;;;;;;;;;5017356;28;20414;-82
2023/03/29 13:14:16;;;;;;;2.50;1.47;;;;;;;;;;5017298;28;20392;-83
2023/03/29 13:16:42;;;;;;;3.50;1.37;;;;;;;;;;5017413;28;20425;-83
2023/03/29 13:19:17;;;;;;;3.10;1.57;;;;;;;;;;5017442;28;20888;-83
2023/03/29 13:21:52;;;;;;;2.00;1.50;;;;;;;;;;5017789;28;20518;-82
2023/03/29 13:24:39;;;;;;;1.30;1.20;;;;;;;;;;5017289;28;20404;-83
2023/03/29 13:27:05;;;;;;;1.27;1.17;;;;;;;;;;5019511;28;20447;-83
2023/03/29 13:29:50;;;;;;;2.50;1.40;;;;;;;;;;5037233;28;20897;-83
2023/03/29 13:32:16;;;;;;;2.27;1.60;;;;;;;;;;5036803;28;20879;-82
2023/03/29 13:34:46;;;;;;;3.20;1.70;;;;;;;;;;5036887;28;20475;-83
2023/03/29 13:37:38;;;;;;;4.27;1.77;;;;;;;;;;5032124;28;20400;-83
2023/03/29 13:40:24;;;;;;;2.37;1.40;;;;;;;;;;5013399;28;20436;-83
2023/03/29 13:42:57;;;;;;;3.60;1.67;;;;;;;;;;5017294;28;20808;-83
2023/03/29 13:45:31;;;;;;;3.50;1.33;;;;;;;;;;5017226;28;20397;-83
2023/03/29 13:48:01;;;;;;;3.30;2.37;;;;;;;;;;5017536;28;20496;-82
2023/03/29 13:50:38;;;;;;;3.53;1.40;;;;;;;;;;5016416;28;20739;-83
2023/03/29 13:53:12;;;;;;;2.70;1.80;;;;;;;;;;5016839;28;20491;-82
2023/03/29 13:55:49;;;;;;;4.20;1.80;;;;;;;;;;5016841;28;20397;-82
2023/03/29 13:58:26;;;;;;;3.57;1.10;;;;;;;;;;5016643;28;20420;-83
2023/03/29 14:00:54;;;;;;;2.50;1.60;;;;;;;;;;5020742;28;20912;-82
2023/03/29 14:03:28;;;;;;;1.60;1.37;;;;;;;;;;5036456;28;20409;-83
2023/03/29 14:05:57;;;;;;;3.03;2.20;;;;;;;;;;5036664;28;20464;-82
2023/03/29 14:08:49;;;;;;;2.37;1.70;;;;;;;;;;5036228;28;20417;-82
2023/03/29 14:11:21;;;;;;;2.47;1.30;;;;;;;;;;5032776;28;20420;-82
2023/03/29 14:13:48;;;;;;;3.40;1.27;;;;;;;;;;5036762;28;20437;-82
2023/03/29 14:16:14;;;;;;;2.87;1.40;;;;;;;;;;5036114;28;20441;-83
2023/03/29 14:18:41;;;;;;;2.80;1.20;;;;;;;;;;5036400;28;20383;-82
2023/03/29 14:21:07;;;;;;;3.97;1.40;;;;;;;;;;5036146;28;20396;-83
2023/03/29 14:23:35;;;;;;;1.50;1.37;;;;;;;;;;5036517;28;20860;-82
2023/03/29 14:26:11;;;;;;;3.77;1.50;;;;;;;;;;5036274;28;20468;-82
2023/03/29 14:28:43;;;;;;;3.13;1.70;;;;;;;;;;5036258;28;20388;-82
2023/03/29 14:31:16;;;;;;;1.77;1.37;;;;;;;;;;5044513;28;20512;-83
2023/03/29 14:33:42;;;;;;;2.30;1.47;;;;;;;;;;5036454;28;20732;-82
2023/03/29 14:36:11;;;;;;;3.03;1.67;;;;;;;;;;5042477;28;20403;-82
2023/03/29 14:38:38;;;;;;;4.10;1.60;;;;;;;;;;5036349;28;20514;-82
2023/03/29 14:41:04;;;;;;;1.60;1.37;;;;;;;;;;5035602;28;20413;-83
2023/03/29 14:43:31;;;;;;;3.20;1.90;;;;;;;;;;5036316;28;20756;-83
2023/03/29 14:45:57;;;;;;;2.50;1.50;;;;;;;;;;5035191;28;20471;-83
2023/03/29 14:48:24;;;;;;;4.40;2.20;;;;;;;;;;5017625;28;20974;-82
2023/03/29 14:50:50;;;;;;;3.33;2.00;;;;;;;;;;5035791;28;20883;-82
2023/03/29 14:53:21;;;;;;;2.27;1.53;;;;;;;;;;5035278;28;20400;-83
2023/03/29 14:55:51;;;;;;;3.63;1.50;;;;;;;;;;5035626;28;20400;-83